Observation data for Spur on 05/23/2019      Previous  Date  Next       Current Mesonet Observations  Soil Data  Daily Summary Page  Observations in Plain Language
KSP1 230500Z 15007KT 23/19 A298 RMK A01 T02280189  RH  083%=      5-min Rain = 0
KSP1 230505Z 15006KT 23/19 A298 RMK A01 T02270189  RH  083%=      5-min Rain = 0
KSP1 230510Z 14005KT 23/19 A298 RMK A01 T02260189  RH  084%=      5-min Rain = 0
KSP1 230515Z 13005G10KT 23/19 A298 RMK A01 T02250189  RH  084%=      5-min Rain = 0
KSP1 230520Z 13005KT 23/19 A298 RMK A01 T02250189  RH  084%=      5-min Rain = 0
KSP1 230525Z 13005KT 23/19 A298 RMK A01 T02250189  RH  085%=      5-min Rain = 0
KSP1 230530Z 13005KT 22/19 A298 RMK A01 T02240189  RH  085%=      5-min Rain = 0
KSP1 230535Z 13005KT 22/19 A298 RMK A01 T02220188  RH  086%=      5-min Rain = 0
KSP1 230540Z 14006KT 22/19 A298 RMK A01 T02210189  RH  087%=      5-min Rain = 0
KSP1 230545Z 14006KT 22/19 A298 RMK A01 T02210190  RH  087%=      5-min Rain = 0
KSP1 230550Z 14007KT 22/19 A298 RMK A01 T02210191  RH  088%=      5-min Rain = 0
KSP1 230555Z 14006KT 22/19 A298 RMK A01 T02210191  RH  088%=      5-min Rain = 0
KSP1 230600Z 14006KT 22/19 A298 RMK A01 T02210191  RH  088%=      5-min Rain = 0
KSP1 230605Z 14006KT 22/19 A298 RMK A01 T02200191  RH  088%=      5-min Rain = 0
KSP1 230610Z 15007KT 22/19 A298 RMK A01 T02200191  RH  088%=      5-min Rain = 0
KSP1 230615Z 15007KT 22/19 A298 RMK A01 T02190191  RH  089%=      5-min Rain = 0
KSP1 230620Z 14006KT 22/19 A298 RMK A01 T02180191  RH  089%=      5-min Rain = 0
KSP1 230625Z 14006KT 22/19 A2981 RMK A01 T02180191  RH  089%=      5-min Rain = 0
KSP1 230630Z 14005KT 22/19 A2981 RMK A01 T02180191  RH  089%=      5-min Rain = 0
KSP1 230635Z 14006KT 22/19 A2981 RMK A01 T02170190  RH  090%=      5-min Rain = 0
KSP1 230640Z 14006KT 22/19 A2981 RMK A01 T02170190  RH  090%=      5-min Rain = 0
KSP1 230645Z 14007KT 22/19 A2981 RMK A01 T02170191  RH  090%=      5-min Rain = 0
KSP1 230650Z 14007KT 22/19 A2981 RMK A01 T02170190  RH  090%=      5-min Rain = 0
KSP1 230655Z 14005KT 22/19 A2981 RMK A01 T02150189  RH  090%=      5-min Rain = 0
KSP1 230700Z 14005KT 22/19 A2981 RMK A01 T02150190  RH  090%=      5-min Rain = 0
KSP1 230705Z 14005KT 21/19 A2981 RMK A01 T02140190  RH  091%=      5-min Rain = 0
KSP1 230710Z 14005KT 21/19 A2981 RMK A01 T02140189  RH  091%=      5-min Rain = 0
KSP1 230715Z 13004KT 21/19 A2981 RMK A01 T02130189  RH  091%=      5-min Rain = 0
KSP1 230720Z 13004KT 21/19 A2981 RMK A01 T02130189  RH  091%=      5-min Rain = 0
KSP1 230725Z 12003KT 21/19 A2981 RMK A01 T02130190  RH  091%=      5-min Rain = 0
KSP1 230730Z 12003KT 21/19 A2981 RMK A01 T02130189  RH  091%=      5-min Rain = 0
KSP1 230735Z 13003KT 21/19 A2981 RMK A01 T02130189  RH  091%=      5-min Rain = 0
KSP1 230740Z 14003KT 21/19 A2981 RMK A01 T02120189  RH  092%=      5-min Rain = 0
KSP1 230745Z 13003KT 21/19 A2982 RMK A01 T02130190  RH  092%=      5-min Rain = 0
KSP1 230750Z 12003KT 21/19 A2982 RMK A01 T02140191  RH  092%=      5-min Rain = 0
KSP1 230755Z 12003KT 22/19 A2981 RMK A01 T02150192  RH  091%=      5-min Rain = 0
KSP1 230800Z 14004KT 22/19 A2981 RMK A01 T02160192  RH  091%=      5-min Rain = 0
KSP1 230805Z 13003KT 22/19 A2981 RMK A01 T02170193  RH  091%=      5-min Rain = 0
KSP1 230810Z 13004KT 22/19 A2981 RMK A01 T02180193  RH  091%=      5-min Rain = 0
KSP1 230815Z 14004KT 22/19 A2981 RMK A01 T02190194  RH  090%=      5-min Rain = 0
KSP1 230820Z 14005KT 22/19 A2981 RMK A01 T02200194  RH  090%=      5-min Rain = 0
KSP1 230825Z 14004KT 22/19 A2981 RMK A01 T02210194  RH  090%=      5-min Rain = 0
KSP1 230830Z 14005KT 22/19 A2981 RMK A01 T02210194  RH  089%=      5-min Rain = 0
KSP1 230835Z 13004KT 22/19 A2981 RMK A01 T02220194  RH  089%=      5-min Rain = 0
KSP1 230840Z 13004KT 22/20 A2982 RMK A01 T02220195  RH  089%=      5-min Rain = 0
KSP1 230845Z 13004KT 22/20 A2982 RMK A01 T02230195  RH  089%=      5-min Rain = 0
KSP1 230850Z 13003KT 22/20 A2982 RMK A01 T02230195  RH  089%=      5-min Rain = 0
KSP1 230855Z 12004KT 22/19 A2982 RMK A01 T02230194  RH  089%=      5-min Rain = 0
KSP1 230900Z 12003KT 22/19 A2982 RMK A01 T02230194  RH  089%=      5-min Rain = 0
KSP1 230905Z 12003KT 22/19 A2982 RMK A01 T02230194  RH  089%=      5-min Rain = 0
KSP1 230910Z 12003KT 22/19 A2982 RMK A01 T02230194  RH  089%=      5-min Rain = 0
KSP1 230915Z 12004KT 22/19 A2982 RMK A01 T02220194  RH  089%=      5-min Rain = 0
KSP1 230920Z 11004KT 22/19 A2982 RMK A01 T02220194  RH  089%=      5-min Rain = 0
KSP1 230925Z 11003KT 22/19 A2982 RMK A01 T02220194  RH  089%=      5-min Rain = 0
KSP1 230930Z 10004KT 22/19 A2982 RMK A01 T02220194  RH  089%=      5-min Rain = 0
KSP1 230935Z 10004KT 22/19 A2982 RMK A01 T02220194  RH  089%=      5-min Rain = 0
KSP1 230940Z 11003KT 22/19 A2982 RMK A01 T02230194  RH  089%=      5-min Rain = 0
KSP1 230945Z 12004KT 22/19 A2982 RMK A01 T02230194  RH  089%=      5-min Rain = 0
KSP1 230950Z 11004KT 22/19 A2982 RMK A01 T02230194  RH  089%=      5-min Rain = 0
KSP1 230955Z 11004KT 22/19 A2982 RMK A01 T02230194  RH  088%=      5-min Rain = 0
KSP1 231000Z 11005KT 22/19 A2983 RMK A01 T02240194  RH  088%=      5-min Rain = 0
KSP1 231005Z 11006KT 22/20 A2983 RMK A01 T02240195  RH  088%=      5-min Rain = 0
KSP1 231010Z 13005KT 23/20 A2983 RMK A01 T02250195  RH  088%=      5-min Rain = 0
KSP1 231015Z 12006G11KT 23/20 A2983 RMK A01 T02250195  RH  088%=      5-min Rain = 0
KSP1 231020Z 13005KT 23/20 A2983 RMK A01 T02250195  RH  088%=      5-min Rain = 0
KSP1 231025Z 13006KT 23/20 A2983 RMK A01 T02250195  RH  088%=      5-min Rain = 0
KSP1 231030Z 14006KT 23/20 A2983 RMK A01 T02250195  RH  088%=      5-min Rain = 0
KSP1 231035Z 14006KT 23/20 A2983 RMK A01 T02250195  RH  088%=      5-min Rain = 0
KSP1 231040Z 14006KT 23/20 A2984 RMK A01 T02250195  RH  088%=      5-min Rain = 0
KSP1 231045Z 14005KT 23/20 A2984 RMK A01 T02250195  RH  088%=      5-min Rain = 0
KSP1 231050Z 14004KT 23/20 A2984 RMK A01 T02250195  RH  088%=      5-min Rain = 0
KSP1 231055Z 15005KT 23/20 A2984 RMK A01 T02250195  RH  088%=      5-min Rain = 0
KSP1 231100Z 15004KT 22/20 A2985 RMK A01 T02240195  RH  089%=      5-min Rain = 0
KSP1 231105Z 15004KT 22/20 A2985 RMK A01 T02240195  RH  089%=      5-min Rain = 0
KSP1 231110Z 15005KT 22/20 A2985 RMK A01 T02240196  RH  089%=      5-min Rain = 0
KSP1 231115Z 15005KT 22/20 A2985 RMK A01 T02240196  RH  089%=      5-min Rain = 0
KSP1 231120Z 14005KT 22/20 A2985 RMK A01 T02240196  RH  089%=      5-min Rain = 0
KSP1 231125Z 15004KT 22/20 A2985 RMK A01 T02240195  RH  089%=      5-min Rain = 0
KSP1 231130Z 16004KT 22/20 A2986 RMK A01 T02240196  RH  089%=      5-min Rain = 0
KSP1 231135Z 17003KT 22/20 A2987 RMK A01 T02240196  RH  089%=      5-min Rain = 0
KSP1 231140Z 18003KT 22/20 A2987 RMK A01 T02240196  RH  089%=      5-min Rain = 0
KSP1 231145Z 16003KT 22/20 A2987 RMK A01 T02240196  RH  089%=      5-min Rain = 0
KSP1 231150Z 16003KT 22/20 A2987 RMK A01 T02240196  RH  089%=      5-min Rain = 0
KSP1 231155Z 15003KT 22/20 A2987 RMK A01 T02240196  RH  089%=      5-min Rain = 0
KSP1 231200Z 14002KT 22/20 A2986 RMK A01 T02240196  RH  089%=      5-min Rain = 0
KSP1 231205Z 13003KT 22/20 A2986 RMK A01 T02230195  RH  089%=      5-min Rain = 0
KSP1 231210Z 12004KT 22/20 A2986 RMK A01 T02230195  RH  089%=      5-min Rain = 0
KSP1 231215Z 12004KT 22/20 A2986 RMK A01 T02230195  RH  090%=      5-min Rain = 0
KSP1 231220Z 12004KT 22/20 A2986 RMK A01 T02230195  RH  089%=      5-min Rain = 0
KSP1 231225Z 12005KT 22/20 A2986 RMK A01 T02230195  RH  089%=      5-min Rain = 0
KSP1 231230Z 12005KT 22/20 A2986 RMK A01 T02240195  RH  089%=      5-min Rain = 0
KSP1 231235Z 12005KT 22/20 A2986 RMK A01 T02240195  RH  089%=      5-min Rain = 0
KSP1 231240Z 12005KT 23/20 A2986 RMK A01 T02250195  RH  088%=      5-min Rain = 0
KSP1 231245Z 12006KT 23/20 A2986 RMK A01 T02260195  RH  088%=      5-min Rain = 0
KSP1 231250Z 12005KT 23/20 A2986 RMK A01 T02260195  RH  088%=      5-min Rain = 0
KSP1 231255Z 12007KT 23/20 A2986 RMK A01 T02260195  RH  088%=      5-min Rain = 0
KSP1 231300Z 12007KT 23/20 A2986 RMK A01 T02260195  RH  088%=      5-min Rain = 0
KSP1 231305Z 12007KT 23/20 A2986 RMK A01 T02260195  RH  088%=      5-min Rain = 0
KSP1 231310Z 12007KT 23/20 A2987 RMK A01 T02250195  RH  088%=      5-min Rain = 0
KSP1 231315Z 12006KT 23/20 A2987 RMK A01 T02250196  RH  088%=      5-min Rain = 0
KSP1 231320Z 12006KT 23/20 A2987 RMK A01 T02250196  RH  088%=      5-min Rain = 0
KSP1 231325Z 12006KT 23/20 A2987 RMK A01 T02250196  RH  088%=      5-min Rain = 0
KSP1 231330Z 12007KT 23/20 A2987 RMK A01 T02260196  RH  088%=      5-min Rain = 0
KSP1 231335Z 12007G12KT 23/20 A2987 RMK A01 T02260196  RH  088%=      5-min Rain = 0
KSP1 231340Z 13006KT 23/20 A2987 RMK A01 T02260196  RH  088%=      5-min Rain = 0
KSP1 231345Z 13006G11KT 23/20 A2987 RMK A01 T02280197  RH  088%=      5-min Rain = 0
KSP1 231350Z 13008KT 23/20 A2987 RMK A01 T02290197  RH  087%=      5-min Rain = 0
KSP1 231355Z 14006G11KT 23/20 A2987 RMK A01 T02290197  RH  087%=      5-min Rain = 0
KSP1 231400Z 14007G12KT 23/20 A2987 RMK A01 T02280196  RH  087%=      5-min Rain = 0
KSP1 231405Z 14008KT 23/20 A2987 RMK A01 T02270196  RH  087%=      5-min Rain = 0
KSP1 231410Z 14008KT 23/20 A2987 RMK A01 T02260195  RH  088%=      5-min Rain = 0
KSP1 231415Z 15009G15KT 23/20 A2988 RMK A01 T02260195  RH  088%=      5-min Rain = 0
KSP1 231420Z 15008KT 23/19 A2988 RMK A01 T02260194  RH  087%=      5-min Rain = 0
KSP1 231425Z 15011G17KT 23/19 A2988 RMK A01 T02260193  RH  086%=      5-min Rain = 0
KSP1 231430Z 15010G16KT 23/19 A2988 RMK A01 T02250193  RH  087%=      5-min Rain = 0
KSP1 231435Z 15010KT 22/19 A2988 RMK A01 T02230194  RH  088%=      5-min Rain = 0
KSP1 231440Z 14011G16KT 22/19 A2988 RMK A01 T02210194  RH  089%=      5-min Rain = 0
KSP1 231445Z 14009G14KT 22/20 A2988 RMK A01 T02200195  RH  090%=      5-min Rain = 0
KSP1 231450Z 14009G14KT 22/20 A2988 RMK A01 T02200195  RH  091%=      5-min Rain = 0
KSP1 231455Z 13008G14KT 22/20 A2988 RMK A01 T02200195  RH  091%=      5-min Rain = 0
KSP1 231500Z 14007G12KT 22/20 A2988 RMK A01 T02210196  RH  091%=      5-min Rain = 0
KSP1 231505Z 14008G14KT 22/20 A2988 RMK A01 T02220196  RH  090%=      5-min Rain = 0
KSP1 231510Z 13007KT 22/20 A2988 RMK A01 T02220196  RH  090%=      5-min Rain = 0
KSP1 231515Z 14009KT 22/20 A2988 RMK A01 T02230196  RH  090%=      5-min Rain = 0
KSP1 231520Z 14009G15KT 22/20 A2988 RMK A01 T02240196  RH  089%=      5-min Rain = 0
KSP1 231525Z 14009G14KT 23/20 A2988 RMK A01 T02260197  RH  088%=      5-min Rain = 0
KSP1 231530Z 14011G18KT 23/20 A2988 RMK A01 T02270195  RH  087%=      5-min Rain = 0
KSP1 231535Z 14010G15KT 23/20 A2988 RMK A01 T02300197  RH  086%=      5-min Rain = 0
KSP1 231540Z 14010G15KT 23/20 A2988 RMK A01 T02300196  RH  086%=      5-min Rain = 0
KSP1 231545Z 14011KT 23/20 A2988 RMK A01 T02300196  RH  086%=      5-min Rain = 0
KSP1 231550Z 14011G18KT 23/20 A2988 RMK A01 T02290196  RH  086%=      5-min Rain = 0
KSP1 231555Z 14011G16KT 23/20 A2988 RMK A01 T02280195  RH  087%=      5-min Rain = 0
KSP1 231600Z 14009G16KT 23/20 A2988 RMK A01 T02260196  RH  088%=      5-min Rain = 0
KSP1 231605Z 15010G15KT 23/20 A2988 RMK A01 T02250195  RH  088%=      5-min Rain = 0
KSP1 231610Z 15009KT 23/20 A2988 RMK A01 T02250196  RH  089%=      5-min Rain = 0
KSP1 231615Z 14009KT 22/20 A2988 RMK A01 T02240196  RH  089%=      5-min Rain = 0
KSP1 231620Z 14009KT 23/20 A2988 RMK A01 T02250196  RH  089%=      5-min Rain = 0
KSP1 231625Z 14010KT 23/20 A2988 RMK A01 T02260196  RH  088%=      5-min Rain = 0
KSP1 231630Z 14008G13KT 23/20 A2988 RMK A01 T02300198  RH  087%=      5-min Rain = 0
KSP1 231635Z 14010KT 23/20 A2988 RMK A01 T02340197  RH  085%=      5-min Rain = 0
KSP1 231640Z 15010KT 24/20 A2988 RMK A01 T02370198  RH  083%=      5-min Rain = 0
KSP1 231645Z 15011G17KT 24/20 A2988 RMK A01 T02370196  RH  083%=      5-min Rain = 0
KSP1 231650Z 15011G18KT 24/20 A2989 RMK A01 T02390197  RH  082%=      5-min Rain = 0
KSP1 231655Z 16013KT 24/20 A2989 RMK A01 T02420195  RH  080%=      5-min Rain = 0
KSP1 231700Z 16013G19KT 24/20 A2989 RMK A01 T02430196  RH  080%=      5-min Rain = 0
KSP1 231705Z 16012G17KT 25/20 A2989 RMK A01 T02450197  RH  079%=      5-min Rain = 0
KSP1 231710Z 16011G16KT 25/20 A2989 RMK A01 T02450197  RH  079%=      5-min Rain = 0
KSP1 231715Z 16011G17KT 25/20 A2989 RMK A01 T02450196  RH  079%=      5-min Rain = 0
KSP1 231720Z 16011G19KT 24/20 A2989 RMK A01 T02440195  RH  078%=      5-min Rain = 0
KSP1 231725Z 15010G16KT 24/20 A2989 RMK A01 T02440196  RH  079%=      5-min Rain = 0
KSP1 231730Z 16011G17KT 25/20 A2989 RMK A01 T02450196  RH  078%=      5-min Rain = 0
KSP1 231735Z 16010G16KT 25/20 A2989 RMK A01 T02480197  RH  077%=      5-min Rain = 0
KSP1 231740Z 16013G19KT 25/20 A2989 RMK A01 T02520196  RH  075%=      5-min Rain = 0
KSP1 231745Z 17014G19KT 26/20 A2989 RMK A01 T02550195  RH  073%=      5-min Rain = 0
KSP1 231750Z 17013G18KT 25/19 A2989 RMK A01 T02540194  RH  074%=      5-min Rain = 0
KSP1 231755Z 16013G18KT 26/19 A2989 RMK A01 T02560194  RH  073%=      5-min Rain = 0
KSP1 231800Z 16013G18KT 26/19 A2989 RMK A01 T02560194  RH  072%=      5-min Rain = 0
KSP1 231805Z 17012G17KT 26/20 A2989 RMK A01 T02590195  RH  072%=      5-min Rain = 0
KSP1 231810Z 16012G19KT 26/20 A2988 RMK A01 T02600195  RH  071%=      5-min Rain = 0
KSP1 231815Z 17011G19KT 26/20 A2988 RMK A01 T02610195  RH  071%=      5-min Rain = 0
KSP1 231820Z 17011G23KT 26/20 A2988 RMK A01 T02640197  RH  070%=      5-min Rain = 0
KSP1 231825Z 17012KT 26/19 A2988 RMK A01 T02620194  RH  070%=      5-min Rain = 0
KSP1 231830Z 17014G19KT 26/19 A2988 RMK A01 T02580191  RH  071%=      5-min Rain = 0
KSP1 231835Z 17010G17KT 26/19 A2988 RMK A01 T02570192  RH  071%=      5-min Rain = 0
KSP1 231840Z 17013G19KT 26/19 A2988 RMK A01 T02590191  RH  070%=      5-min Rain = 0
KSP1 231845Z 17012G18KT 26/19 A2988 RMK A01 T02590190  RH  070%=      5-min Rain = 0
KSP1 231850Z 18013KT 26/19 A2988 RMK A01 T02590190  RH  069%=      5-min Rain = 0
KSP1 231855Z 17014KT 26/19 A2988 RMK A01 T02570190  RH  070%=      5-min Rain = 0
KSP1 231900Z 17012G18KT 26/19 A2988 RMK A01 T02550189  RH  071%=      5-min Rain = 0
KSP1 231905Z 17011G16KT 25/19 A2988 RMK A01 T02540190  RH  072%=      5-min Rain = 0
KSP1 231910Z 16011G16KT 25/19 A2987 RMK A01 T02530190  RH  072%=      5-min Rain = 0
KSP1 231915Z 16010G16KT 25/19 A2987 RMK A01 T02540191  RH  072%=      5-min Rain = 0
KSP1 231920Z 17012G18KT 26/19 A2987 RMK A01 T02560191  RH  071%=      5-min Rain = 0
KSP1 231925Z 17013G19KT 26/19 A2987 RMK A01 T02580192  RH  071%=      5-min Rain = 0
KSP1 231930Z 16011G18KT 26/19 A2986 RMK A01 T02610193  RH  070%=      5-min Rain = 0
KSP1 231935Z 16011G17KT 26/19 A2986 RMK A01 T02620194  RH  070%=      5-min Rain = 0
KSP1 231940Z 16011G17KT 26/19 A2986 RMK A01 T02630194  RH  070%=      5-min Rain = 0
KSP1 231945Z 15012G18KT 26/19 A2986 RMK A01 T02640194  RH  069%=      5-min Rain = 0
KSP1 231950Z 15010KT 27/20 A2986 RMK A01 T02700198  RH  069%=      5-min Rain = 0
KSP1 231955Z 16013G18KT 27/19 A2986 RMK A01 T02720193  RH  066%=      5-min Rain = 0
KSP1 232000Z 15011G17KT 27/19 A2986 RMK A01 T02710194  RH  067%=      5-min Rain = 0
KSP1 232005Z 15011G16KT 27/19 A2986 RMK A01 T02690192  RH  067%=      5-min Rain = 0
KSP1 232010Z 15011G18KT 27/20 A2986 RMK A01 T02710195  RH  067%=      5-min Rain = 0
KSP1 232015Z 15012G18KT 27/19 A2986 RMK A01 T02710193  RH  066%=      5-min Rain = 0
KSP1 232020Z 15010G15KT 27/19 A2986 RMK A01 T02700193  RH  066%=      5-min Rain = 0
KSP1 232025Z 16011KT 27/19 A2986 RMK A01 T02700192  RH  066%=      5-min Rain = 0
KSP1 232030Z 15011G16KT 27/19 A2985 RMK A01 T02710193  RH  066%=      5-min Rain = 0
KSP1 232035Z 16012G19KT 28/19 A2985 RMK A01 T02750193  RH  065%=      5-min Rain = 0
KSP1 232040Z 16012G18KT 27/19 A2985 RMK A01 T02740190  RH  064%=      5-min Rain = 0
KSP1 232045Z 16011G17KT 28/19 A2985 RMK A01 T02760192  RH  064%=      5-min Rain = 0
KSP1 232050Z 17013G23KT 28/19 A2985 RMK A01 T02800190  RH  062%=      5-min Rain = 0
KSP1 232055Z 17014G19KT 28/19 A2985 RMK A01 T02800189  RH  061%=      5-min Rain = 0
KSP1 232100Z 17012G18KT 28/19 A2985 RMK A01 T02810190  RH  061%=      5-min Rain = 0
KSP1 232105Z 18012G19KT 28/19 A2985 RMK A01 T02800188  RH  061%=      5-min Rain = 0
KSP1 232110Z 17013G18KT 28/19 A2985 RMK A01 T02830191  RH  060%=      5-min Rain = 0
KSP1 232115Z 16016G22KT 29/19 A2984 RMK A01 T02860187  RH  058%=      5-min Rain = 0
KSP1 232120Z 17014G21KT 29/19 A2984 RMK A01 T02870188  RH  058%=      5-min Rain = 0
KSP1 232125Z 18016G23KT 29/18 A2984 RMK A01 T02850184  RH  057%=      5-min Rain = 0
KSP1 232130Z 17014G20KT 29/19 A2984 RMK A01 T02880189  RH  058%=      5-min Rain = 0
KSP1 232135Z 17014G21KT 29/19 A2984 RMK A01 T02890186  RH  057%=      5-min Rain = 0
KSP1 232140Z 16014G25KT 29/19 A2983 RMK A01 T02900186  RH  056%=      5-min Rain = 0
KSP1 232145Z 17013G18KT 29/19 A2983 RMK A01 T02900186  RH  056%=      5-min Rain = 0
KSP1 232150Z 17013KT 29/19 A2983 RMK A01 T02910186  RH  056%=      5-min Rain = 0
KSP1 232155Z 17017G25KT 29/18 A2983 RMK A01 T02910181  RH  054%=      5-min Rain = 0
KSP1 232200Z 17014G20KT 29/18 A2983 RMK A01 T02900183  RH  055%=      5-min Rain = 0
KSP1 232205Z 17015G21KT 29/18 A2983 RMK A01 T02900183  RH  055%=      5-min Rain = 0
KSP1 232210Z 17013G19KT 29/18 A2983 RMK A01 T02900184  RH  056%=      5-min Rain = 0
KSP1 232215Z 17015KT 29/18 A2982 RMK A01 T02870181  RH  056%=      5-min Rain = 0
KSP1 232220Z 16012G19KT 28/18 A2982 RMK A01 T02840182  RH  057%=      5-min Rain = 0
KSP1 232225Z 16013G20KT 28/18 A2982 RMK A01 T02830181  RH  057%=      5-min Rain = 0
KSP1 232230Z 16012G17KT 29/18 A2982 RMK A01 T02850183  RH  057%=      5-min Rain = 0
KSP1 232235Z 16014KT 29/18 A2982 RMK A01 T02850182  RH  057%=      5-min Rain = 0
KSP1 232240Z 16014G21KT 29/18 A2982 RMK A01 T02890180  RH  055%=      5-min Rain = 0
KSP1 232245Z 16014G19KT 29/18 A2982 RMK A01 T02870181  RH  056%=      5-min Rain = 0
KSP1 232250Z 16015G21KT 29/18 A2982 RMK A01 T02850183  RH  057%=      5-min Rain = 0
KSP1 232255Z 15014G21KT 28/18 A2982 RMK A01 T02820184  RH  058%=      5-min Rain = 0
KSP1 232300Z 16013G19KT 28/18 A2982 RMK A01 T02790183  RH  059%=      5-min Rain = 0
KSP1 232305Z 15014G20KT 28/18 A2982 RMK A01 T02780182  RH  059%=      5-min Rain = 0
KSP1 232310Z 15014G23KT 28/18 A2981 RMK A01 T02810181  RH  058%=      5-min Rain = 0
KSP1 232315Z 16012G18KT 28/18 A2982 RMK A01 T02820183  RH  058%=      5-min Rain = 0
KSP1 232320Z 16013G18KT 28/18 A2982 RMK A01 T02820182  RH  058%=      5-min Rain = 0
KSP1 232325Z 16011G18KT 28/18 A2982 RMK A01 T02800183  RH  059%=      5-min Rain = 0
KSP1 232330Z 16011KT 28/18 A2982 RMK A01 T02780182  RH  059%=      5-min Rain = 0
KSP1 232335Z 16011G17KT 28/18 A2982 RMK A01 T02760181  RH  059%=      5-min Rain = 0
KSP1 232340Z 16013G20KT 28/18 A2981 RMK A01 T02750178  RH  058%=      5-min Rain = 0
KSP1 232345Z 15014G23KT 28/18 A2981 RMK A01 T02760177  RH  058%=      5-min Rain = 0
KSP1 232350Z 16012G17KT 28/18 A2981 RMK A01 T02750178  RH  059%=      5-min Rain = 0
KSP1 232355Z 16011G20KT 27/18 A2981 RMK A01 T02740178  RH  059%=      5-min Rain = 0
KSP1 240000Z 16012G18KT 27/18 A2981 RMK A01 T02730178  RH  059%=      5-min Rain = 0
KSP1 240005Z 16012G18KT 27/18 A2981 RMK A01 T02720176  RH  059%=      5-min Rain = 0
KSP1 240010Z 16012KT 27/18 A2981 RMK A01 T02720176  RH  059%=      5-min Rain = 0
KSP1 240015Z 16013G21KT 27/18 A2981 RMK A01 T02720175  RH  058%=      5-min Rain = 0
KSP1 240020Z 16013G18KT 27/17 A2981 RMK A01 T02720173  RH  058%=      5-min Rain = 0
KSP1 240025Z 16012G18KT 27/17 A298 RMK A01 T02720174  RH  058%=      5-min Rain = 0
KSP1 240030Z 16013G20KT 27/17 A298 RMK A01 T02710173  RH  058%=      5-min Rain = 0
KSP1 240035Z 16013KT 27/17 A298 RMK A01 T02700173  RH  059%=      5-min Rain = 0
KSP1 240040Z 16012G18KT 27/17 A298 RMK A01 T02690173  RH  059%=      5-min Rain = 0
KSP1 240045Z 16010G15KT 27/18 A298 RMK A01 T02670175  RH  060%=      5-min Rain = 0
KSP1 240050Z 15009G14KT 26/18 A2981 RMK A01 T02640177  RH  062%=      5-min Rain = 0
KSP1 240055Z 15009KT 26/18 A2981 RMK A01 T02620179  RH  063%=      5-min Rain = 0
KSP1 240100Z 15010KT 26/18 A2981 RMK A01 T02610179  RH  064%=      5-min Rain = 0
KSP1 240105Z 15009KT 26/18 A2981 RMK A01 T02600179  RH  064%=      5-min Rain = 0
KSP1 240110Z 15009KT 26/18 A298 RMK A01 T02590180  RH  065%=      5-min Rain = 0
KSP1 240115Z 15008G13KT 26/18 A298 RMK A01 T02570180  RH  066%=      5-min Rain = 0
KSP1 240120Z 15009KT 26/18 A298 RMK A01 T02550181  RH  067%=      5-min Rain = 0
KSP1 240125Z 15009G14KT 26/18 A2981 RMK A01 T02550181  RH  067%=      5-min Rain = 0
KSP1 240130Z 15011G18KT 25/18 A2981 RMK A01 T02540180  RH  067%=      5-min Rain = 0
KSP1 240135Z 15011G16KT 26/18 A2981 RMK A01 T02560179  RH  066%=      5-min Rain = 0
KSP1 240140Z 16012KT 26/18 A2981 RMK A01 T02570178  RH  065%=      5-min Rain = 0
KSP1 240145Z 16011G16KT 26/18 A2981 RMK A01 T02570177  RH  065%=      5-min Rain = 0
KSP1 240150Z 15011KT 26/18 A2982 RMK A01 T02580176  RH  064%=      5-min Rain = 0
KSP1 240155Z 15010KT 26/18 A2982 RMK A01 T02570177  RH  064%=      5-min Rain = 0
KSP1 240200Z 15010G16KT 26/18 A2983 RMK A01 T02570177  RH  064%=      5-min Rain = 0
KSP1 240205Z 15011G16KT 26/18 A2983 RMK A01 T02570176  RH  064%=      5-min Rain = 0
KSP1 240210Z 15011KT 26/18 A2983 RMK A01 T02570176  RH  064%=      5-min Rain = 0
KSP1 240215Z 16011KT 26/18 A2983 RMK A01 T02560176  RH  064%=      5-min Rain = 0
KSP1 240220Z 15010G15KT 26/18 A2983 RMK A01 T02560175  RH  064%=      5-min Rain = 0
KSP1 240225Z 15009KT 26/18 A2984 RMK A01 T02550175  RH  064%=      5-min Rain = 0
KSP1 240230Z 14007G12KT 25/18 A2984 RMK A01 T02530176  RH  066%=      5-min Rain = 0
KSP1 240235Z 14007KT 25/18 A2984 RMK A01 T02500177  RH  067%=      5-min Rain = 0
KSP1 240240Z 14007G13KT 25/18 A2984 RMK A01 T02480177  RH  068%=      5-min Rain = 0
KSP1 240245Z 15008G13KT 25/18 A2984 RMK A01 T02480178  RH  069%=      5-min Rain = 0
KSP1 240250Z 15008KT 25/18 A2984 RMK A01 T02480178  RH  069%=      5-min Rain = 0
KSP1 240255Z 15007KT 25/18 A2984 RMK A01 T02480178  RH  069%=      5-min Rain = 0
KSP1 240300Z 15007KT 25/18 A2985 RMK A01 T02480179  RH  069%=      5-min Rain = 0
KSP1 240305Z 15007KT 25/18 A2985 RMK A01 T02490179  RH  069%=      5-min Rain = 0
KSP1 240310Z 15007G12KT 25/18 A2985 RMK A01 T02490179  RH  068%=      5-min Rain = 0
KSP1 240315Z 14007KT 25/18 A2986 RMK A01 T02500178  RH  068%=      5-min Rain = 0
KSP1 240320Z 14007KT 25/18 A2986 RMK A01 T02500178  RH  068%=      5-min Rain = 0
KSP1 240325Z 14006KT 25/18 A2986 RMK A01 T02480179  RH  069%=      5-min Rain = 0
KSP1 240330Z 14005KT 25/18 A2986 RMK A01 T02470179  RH  069%=      5-min Rain = 0
KSP1 240335Z 14006KT 25/18 A2987 RMK A01 T02460178  RH  070%=      5-min Rain = 0
KSP1 240340Z 15007KT 25/18 A2987 RMK A01 T02450178  RH  070%=      5-min Rain = 0
KSP1 240345Z 15007KT 24/18 A2987 RMK A01 T02440178  RH  070%=      5-min Rain = 0
KSP1 240350Z 15007KT 24/18 A2987 RMK A01 T02440178  RH  071%=      5-min Rain = 0
KSP1 240355Z 14007KT 24/18 A2988 RMK A01 T02430178  RH  071%=      5-min Rain = 0
KSP1 240400Z 14007KT 24/18 A2988 RMK A01 T02430178  RH  071%=      5-min Rain = 0
KSP1 240405Z 14007KT 24/18 A2988 RMK A01 T02430178  RH  071%=      5-min Rain = 0
KSP1 240410Z 15007KT 24/18 A2988 RMK A01 T02420178  RH  071%=      5-min Rain = 0
KSP1 240415Z 14006KT 24/18 A2988 RMK A01 T02420178  RH  071%=      5-min Rain = 0
KSP1 240420Z 14006KT 24/18 A2989 RMK A01 T02410178  RH  072%=      5-min Rain = 0
KSP1 240425Z 14005KT 24/18 A2989 RMK A01 T02410178  RH  071%=      5-min Rain = 0
KSP1 240430Z 14004KT 24/18 A2989 RMK A01 T02410178  RH  072%=      5-min Rain = 0
KSP1 240435Z 14004KT 24/18 A2989 RMK A01 T02400179  RH  072%=      5-min Rain = 0
KSP1 240440Z 14004KT 24/18 A2989 RMK A01 T02390178  RH  072%=      5-min Rain = 0
KSP1 240445Z 14003KT 24/18 A2989 RMK A01 T02390178  RH  073%=      5-min Rain = 0
KSP1 240450Z 14005KT 24/18 A2989 RMK A01 T02390178  RH  073%=      5-min Rain = 0
KSP1 240455Z 14004KT 24/18 A2989 RMK A01 T02380179  RH  073%=      5-min Rain = 0

Page generated in 0.009 seconds.